sensor_id;sensor_type;location;lat;lon;timestamp;P1;durP1;ratioP1;P2;durP2;ratioP2
7383;SDS011;3733;47.994;8.820;2023-11-18T00:02:16;80.40;;;7.80;;
7383;SDS011;3733;47.994;8.820;2023-11-18T00:04:42;46.70;;;7.17;;
7383;SDS011;3733;47.994;8.820;2023-11-18T00:07:07;26.87;;;7.57;;
7383;SDS011;3733;47.994;8.820;2023-11-18T00:09:33;59.93;;;7.50;;
7383;SDS011;3733;47.994;8.820;2023-11-18T00:11:58;52.00;;;7.40;;
7383;SDS011;3733;47.994;8.820;2023-11-18T00:14:24;30.30;;;7.23;;
7383;SDS011;3733;47.994;8.820;2023-11-18T00:16:49;61.80;;;8.20;;
7383;SDS011;3733;47.994;8.820;2023-11-18T00:19:15;57.30;;;8.60;;
7383;SDS011;3733;47.994;8.820;2023-11-18T00:21:41;27.10;;;7.47;;
7383;SDS011;3733;47.994;8.820;2023-11-18T00:24:07;70.73;;;8.13;;
7383;SDS011;3733;47.994;8.820;2023-11-18T00:26:33;64.27;;;8.53;;
7383;SDS011;3733;47.994;8.820;2023-11-18T00:28:59;38.63;;;7.10;;
7383;SDS011;3733;47.994;8.820;2023-11-18T00:31:27;44.30;;;7.23;;
7383;SDS011;3733;47.994;8.820;2023-11-18T00:33:54;44.17;;;6.57;;
7383;SDS011;3733;47.994;8.820;2023-11-18T00:36:20;14.13;;;6.03;;
7383;SDS011;3733;47.994;8.820;2023-11-18T00:38:45;7.77;;;4.40;;
7383;SDS011;3733;47.994;8.820;2023-11-18T00:41:12;10.67;;;5.77;;
7383;SDS011;3733;47.994;8.820;2023-11-18T00:43:37;13.03;;;5.70;;
7383;SDS011;3733;47.994;8.820;2023-11-18T00:46:03;23.70;;;7.10;;
7383;SDS011;3733;47.994;8.820;2023-11-18T00:48:30;66.13;;;9.10;;
7383;SDS011;3733;47.994;8.820;2023-11-18T00:50:56;39.87;;;8.43;;
7383;SDS011;3733;47.994;8.820;2023-11-18T00:53:21;46.17;;;7.87;;
7383;SDS011;3733;47.994;8.820;2023-11-18T00:55:47;27.70;;;7.00;;
7383;SDS011;3733;47.994;8.820;2023-11-18T00:58:13;155.80;;;9.93;;
7383;SDS011;3733;47.994;8.820;2023-11-18T01:00:39;23.33;;;5.27;;
7383;SDS011;3733;47.994;8.820;2023-11-18T01:03:05;39.27;;;5.70;;
7383;SDS011;3733;47.994;8.820;2023-11-18T01:05:30;21.70;;;5.97;;
7383;SDS011;3733;47.994;8.820;2023-11-18T01:07:56;17.20;;;5.83;;
7383;SDS011;3733;47.994;8.820;2023-11-18T01:10:25;12.90;;;4.60;;
7383;SDS011;3733;47.994;8.820;2023-11-18T01:12:50;14.07;;;5.30;;
7383;SDS011;3733;47.994;8.820;2023-11-18T01:15:16;77.63;;;7.53;;
7383;SDS011;3733;47.994;8.820;2023-11-18T01:17:42;95.13;;;8.50;;
7383;SDS011;3733;47.994;8.820;2023-11-18T01:20:07;146.37;;;10.17;;
7383;SDS011;3733;47.994;8.820;2023-11-18T01:22:35;125.60;;;8.10;;
7383;SDS011;3733;47.994;8.820;2023-11-18T01:25:01;27.20;;;4.90;;
7383;SDS011;3733;47.994;8.820;2023-11-18T01:27:27;22.23;;;4.37;;
7383;SDS011;3733;47.994;8.820;2023-11-18T01:29:53;84.00;;;7.80;;
7383;SDS011;3733;47.994;8.820;2023-11-18T01:32:18;32.30;;;5.40;;
7383;SDS011;3733;47.994;8.820;2023-11-18T01:34:44;11.00;;;4.90;;
7383;SDS011;3733;47.994;8.820;2023-11-18T01:37:15;44.57;;;6.30;;
7383;SDS011;3733;47.994;8.820;2023-11-18T01:39:41;13.27;;;4.60;;
7383;SDS011;3733;47.994;8.820;2023-11-18T01:42:06;37.93;;;4.93;;
7383;SDS011;3733;47.994;8.820;2023-11-18T01:44:32;105.73;;;7.67;;
7383;SDS011;3733;47.994;8.820;2023-11-18T01:47:01;72.07;;;5.97;;
7383;SDS011;3733;47.994;8.820;2023-11-18T01:49:30;117.97;;;6.97;;
7383;SDS011;3733;47.994;8.820;2023-11-18T01:52:00;87.47;;;6.83;;
7383;SDS011;3733;47.994;8.820;2023-11-18T01:54:26;32.23;;;4.50;;
7383;SDS011;3733;47.994;8.820;2023-11-18T01:56:53;85.63;;;6.70;;
7383;SDS011;3733;47.994;8.820;2023-11-18T01:59:20;136.53;;;8.47;;
7383;SDS011;3733;47.994;8.820;2023-11-18T02:01:47;79.90;;;7.07;;
7383;SDS011;3733;47.994;8.820;2023-11-18T02:04:15;96.10;;;7.07;;
7383;SDS011;3733;47.994;8.820;2023-11-18T02:06:41;69.67;;;7.20;;
7383;SDS011;3733;47.994;8.820;2023-11-18T02:09:09;42.57;;;5.50;;
7383;SDS011;3733;47.994;8.820;2023-11-18T02:11:36;49.10;;;5.43;;
7383;SDS011;3733;47.994;8.820;2023-11-18T02:14:07;118.63;;;7.37;;
7383;SDS011;3733;47.994;8.820;2023-11-18T02:16:36;60.57;;;5.53;;
7383;SDS011;3733;47.994;8.820;2023-11-18T02:19:03;110.50;;;7.60;;
7383;SDS011;3733;47.994;8.820;2023-11-18T02:21:34;46.23;;;5.30;;
7383;SDS011;3733;47.994;8.820;2023-11-18T02:24:02;84.63;;;7.20;;
7383;SDS011;3733;47.994;8.820;2023-11-18T02:26:29;77.97;;;7.00;;
7383;SDS011;3733;47.994;8.820;2023-11-18T02:28:55;58.00;;;5.33;;
7383;SDS011;3733;47.994;8.820;2023-11-18T02:31:22;110.53;;;7.60;;
7383;SDS011;3733;47.994;8.820;2023-11-18T02:34:05;86.83;;;7.10;;
7383;SDS011;3733;47.994;8.820;2023-11-18T02:36:48;182.13;;;9.73;;
7383;SDS011;3733;47.994;8.820;2023-11-18T02:39:22;110.67;;;7.83;;
7383;SDS011;3733;47.994;8.820;2023-11-18T02:41:53;56.93;;;5.93;;
7383;SDS011;3733;47.994;8.820;2023-11-18T02:44:21;75.50;;;6.50;;
7383;SDS011;3733;47.994;8.820;2023-11-18T02:46:48;113.23;;;8.77;;
7383;SDS011;3733;47.994;8.820;2023-11-18T02:49:14;162.43;;;11.13;;
7383;SDS011;3733;47.994;8.820;2023-11-18T02:51:40;88.43;;;6.47;;
7383;SDS011;3733;47.994;8.820;2023-11-18T02:54:06;175.07;;;9.03;;
7383;SDS011;3733;47.994;8.820;2023-11-18T02:56:35;192.00;;;12.70;;
7383;SDS011;3733;47.994;8.820;2023-11-18T02:59:01;77.00;;;5.90;;
7383;SDS011;3733;47.994;8.820;2023-11-18T03:01:30;188.20;;;9.00;;
7383;SDS011;3733;47.994;8.820;2023-11-18T03:03:56;163.63;;;10.10;;
7383;SDS011;3733;47.994;8.820;2023-11-18T03:06:22;260.53;;;12.77;;
7383;SDS011;3733;47.994;8.820;2023-11-18T03:08:48;211.73;;;12.40;;
7383;SDS011;3733;47.994;8.820;2023-11-18T03:11:13;216.83;;;11.17;;
7383;SDS011;3733;47.994;8.820;2023-11-18T03:13:39;98.30;;;6.33;;
7383;SDS011;3733;47.994;8.820;2023-11-18T03:16:08;110.57;;;6.80;;
7383;SDS011;3733;47.994;8.820;2023-11-18T03:18:37;36.73;;;4.50;;
7383;SDS011;3733;47.994;8.820;2023-11-18T03:21:04;35.53;;;5.60;;
7383;SDS011;3733;47.994;8.820;2023-11-18T03:23:31;43.23;;;5.30;;
7383;SDS011;3733;47.994;8.820;2023-11-18T03:25:57;29.33;;;4.70;;
7383;SDS011;3733;47.994;8.820;2023-11-18T03:28:23;151.37;;;9.80;;
7383;SDS011;3733;47.994;8.820;2023-11-18T03:30:49;103.00;;;9.43;;
7383;SDS011;3733;47.994;8.820;2023-11-18T03:33:14;50.77;;;5.93;;
7383;SDS011;3733;47.994;8.820;2023-11-18T03:35:40;164.90;;;8.57;;
7383;SDS011;3733;47.994;8.820;2023-11-18T03:38:05;73.37;;;6.50;;
7383;SDS011;3733;47.994;8.820;2023-11-18T03:40:31;123.13;;;7.93;;
7383;SDS011;3733;47.994;8.820;2023-11-18T03:42:57;6.97;;;3.50;;
7383;SDS011;3733;47.994;8.820;2023-11-18T03:45:23;206.07;;;8.87;;
7383;SDS011;3733;47.994;8.820;2023-11-18T03:47:49;38.27;;;4.20;;
7383;SDS011;3733;47.994;8.820;2023-11-18T03:50:16;54.13;;;4.20;;
7383;SDS011;3733;47.994;8.820;2023-11-18T03:52:41;101.63;;;5.57;;
7383;SDS011;3733;47.994;8.820;2023-11-18T03:55:07;47.40;;;4.57;;
7383;SDS011;3733;47.994;8.820;2023-11-18T03:57:33;74.93;;;5.53;;
7383;SDS011;3733;47.994;8.820;2023-11-18T03:59:59;129.47;;;8.50;;
7383;SDS011;3733;47.994;8.820;2023-11-18T04:02:25;160.30;;;9.10;;
7383;SDS011;3733;47.994;8.820;2023-11-18T04:04:51;68.80;;;6.00;;
7383;SDS011;3733;47.994;8.820;2023-11-18T04:07:17;78.27;;;5.77;;
7383;SDS011;3733;47.994;8.820;2023-11-18T04:09:42;43.70;;;5.67;;
7383;SDS011;3733;47.994;8.820;2023-11-18T04:12:08;96.73;;;6.30;;
7383;SDS011;3733;47.994;8.820;2023-11-18T04:14:35;51.27;;;5.10;;
7383;SDS011;3733;47.994;8.820;2023-11-18T04:17:01;25.17;;;5.10;;
7383;SDS011;3733;47.994;8.820;2023-11-18T04:19:27;30.53;;;4.40;;
7383;SDS011;3733;47.994;8.820;2023-11-18T04:21:53;47.77;;;5.13;;
7383;SDS011;3733;47.994;8.820;2023-11-18T04:24:20;64.10;;;5.50;;
7383;SDS011;3733;47.994;8.820;2023-11-18T04:26:45;54.60;;;5.13;;
7383;SDS011;3733;47.994;8.820;2023-11-18T04:29:13;13.03;;;3.43;;
7383;SDS011;3733;47.994;8.820;2023-11-18T04:31:38;31.03;;;3.80;;
7383;SDS011;3733;47.994;8.820;2023-11-18T04:34:04;43.50;;;4.90;;
7383;SDS011;3733;47.994;8.820;2023-11-18T04:36:30;49.07;;;4.37;;
7383;SDS011;3733;47.994;8.820;2023-11-18T04:38:59;91.23;;;6.20;;
7383;SDS011;3733;47.994;8.820;2023-11-18T04:41:25;59.93;;;6.30;;
7383;SDS011;3733;47.994;8.820;2023-11-18T04:43:51;87.93;;;12.60;;
7383;SDS011;3733;47.994;8.820;2023-11-18T04:46:16;76.80;;;8.53;;
7383;SDS011;3733;47.994;8.820;2023-11-18T04:48:42;53.40;;;4.50;;
7383;SDS011;3733;47.994;8.820;2023-11-18T04:51:08;47.20;;;4.43;;
7383;SDS011;3733;47.994;8.820;2023-11-18T04:53:33;39.27;;;4.53;;
7383;SDS011;3733;47.994;8.820;2023-11-18T04:55:59;49.93;;;5.87;;
7383;SDS011;3733;47.994;8.820;2023-11-18T04:58:25;56.53;;;5.33;;
7383;SDS011;3733;47.994;8.820;2023-11-18T05:00:50;44.10;;;5.97;;
7383;SDS011;3733;47.994;8.820;2023-11-18T05:03:16;169.00;;;9.60;;
7383;SDS011;3733;47.994;8.820;2023-11-18T05:05:42;50.57;;;8.00;;
7383;SDS011;3733;47.994;8.820;2023-11-18T05:08:07;79.27;;;9.23;;
7383;SDS011;3733;47.994;8.820;2023-11-18T05:10:45;30.53;;;5.43;;
7383;SDS011;3733;47.994;8.820;2023-11-18T05:13:12;137.73;;;10.03;;
7383;SDS011;3733;47.994;8.820;2023-11-18T05:15:40;86.83;;;8.47;;
7383;SDS011;3733;47.994;8.820;2023-11-18T05:18:06;161.07;;;10.63;;
7383;SDS011;3733;47.994;8.820;2023-11-18T05:20:36;101.33;;;8.63;;
7383;SDS011;3733;47.994;8.820;2023-11-18T05:23:02;100.00;;;7.93;;
7383;SDS011;3733;47.994;8.820;2023-11-18T05:25:28;93.47;;;8.43;;
7383;SDS011;3733;47.994;8.820;2023-11-18T05:27:54;41.17;;;6.37;;
7383;SDS011;3733;47.994;8.820;2023-11-18T05:30:19;86.73;;;7.77;;
7383;SDS011;3733;47.994;8.820;2023-11-18T05:32:45;57.17;;;8.70;;
7383;SDS011;3733;47.994;8.820;2023-11-18T05:35:11;97.23;;;9.53;;
7383;SDS011;3733;47.994;8.820;2023-11-18T05:37:37;81.00;;;8.00;;
7383;SDS011;3733;47.994;8.820;2023-11-18T05:40:06;121.93;;;9.73;;
7383;SDS011;3733;47.994;8.820;2023-11-18T05:42:35;115.27;;;10.40;;
7383;SDS011;3733;47.994;8.820;2023-11-18T05:45:02;53.23;;;7.97;;
7383;SDS011;3733;47.994;8.820;2023-11-18T05:47:29;161.43;;;11.80;;
7383;SDS011;3733;47.994;8.820;2023-11-18T05:49:55;203.93;;;14.03;;
7383;SDS011;3733;47.994;8.820;2023-11-18T05:52:21;142.03;;;16.00;;
7383;SDS011;3733;47.994;8.820;2023-11-18T05:54:47;148.67;;;13.90;;
7383;SDS011;3733;47.994;8.820;2023-11-18T05:57:14;155.60;;;13.87;;
7383;SDS011;3733;47.994;8.820;2023-11-18T05:59:41;79.77;;;9.87;;
7383;SDS011;3733;47.994;8.820;2023-11-18T06:02:07;365.97;;;20.90;;
7383;SDS011;3733;47.994;8.820;2023-11-18T06:04:33;139.10;;;11.27;;
7383;SDS011;3733;47.994;8.820;2023-11-18T06:07:00;37.50;;;7.27;;
7383;SDS011;3733;47.994;8.820;2023-11-18T06:09:27;131.03;;;14.47;;
7383;SDS011;3733;47.994;8.820;2023-11-18T06:11:53;112.23;;;10.63;;
7383;SDS011;3733;47.994;8.820;2023-11-18T06:14:19;81.50;;;10.30;;
7383;SDS011;3733;47.994;8.820;2023-11-18T06:16:46;187.60;;;14.23;;
7383;SDS011;3733;47.994;8.820;2023-11-18T06:19:15;103.03;;;11.00;;
7383;SDS011;3733;47.994;8.820;2023-11-18T06:21:41;95.33;;;8.20;;
7383;SDS011;3733;47.994;8.820;2023-11-18T06:24:07;149.10;;;12.17;;
7383;SDS011;3733;47.994;8.820;2023-11-18T06:26:33;87.57;;;9.30;;
7383;SDS011;3733;47.994;8.820;2023-11-18T06:29:02;136.77;;;10.97;;
7383;SDS011;3733;47.994;8.820;2023-11-18T06:31:28;106.83;;;10.70;;
7383;SDS011;3733;47.994;8.820;2023-11-18T06:33:54;91.70;;;8.10;;
7383;SDS011;3733;47.994;8.820;2023-11-18T06:36:20;254.27;;;15.10;;
7383;SDS011;3733;47.994;8.820;2023-11-18T06:38:51;49.57;;;6.83;;
7383;SDS011;3733;47.994;8.820;2023-11-18T06:41:18;142.33;;;9.23;;
7383;SDS011;3733;47.994;8.820;2023-11-18T06:43:45;90.50;;;7.67;;
7383;SDS011;3733;47.994;8.820;2023-11-18T06:48:50;85.93;;;8.77;;
7383;SDS011;3733;47.994;8.820;2023-11-18T06:51:19;126.60;;;10.40;;
7383;SDS011;3733;47.994;8.820;2023-11-18T06:53:48;40.90;;;7.53;;
7383;SDS011;3733;47.994;8.820;2023-11-18T06:56:14;157.33;;;13.27;;
7383;SDS011;3733;47.994;8.820;2023-11-18T06:58:40;120.03;;;10.77;;
7383;SDS011;3733;47.994;8.820;2023-11-18T07:01:07;123.47;;;12.03;;
7383;SDS011;3733;47.994;8.820;2023-11-18T07:03:34;199.67;;;13.47;;
7383;SDS011;3733;47.994;8.820;2023-11-18T07:06:01;67.70;;;11.40;;
7383;SDS011;3733;47.994;8.820;2023-11-18T07:08:27;88.87;;;11.73;;
7383;SDS011;3733;47.994;8.820;2023-11-18T07:10:53;141.07;;;14.40;;
7383;SDS011;3733;47.994;8.820;2023-11-18T07:13:19;98.17;;;10.90;;
7383;SDS011;3733;47.994;8.820;2023-11-18T07:15:48;104.90;;;11.20;;
7383;SDS011;3733;47.994;8.820;2023-11-18T07:18:14;77.27;;;9.83;;
7383;SDS011;3733;47.994;8.820;2023-11-18T07:20:41;73.37;;;9.20;;
7383;SDS011;3733;47.994;8.820;2023-11-18T07:23:07;258.40;;;13.93;;
7383;SDS011;3733;47.994;8.820;2023-11-18T07:25:33;88.23;;;8.67;;
7383;SDS011;3733;47.994;8.820;2023-11-18T07:27:59;114.50;;;12.20;;
7383;SDS011;3733;47.994;8.820;2023-11-18T07:30:25;172.17;;;11.60;;
7383;SDS011;3733;47.994;8.820;2023-11-18T07:32:51;72.00;;;9.10;;
7383;SDS011;3733;47.994;8.820;2023-11-18T07:35:17;13.80;;;6.30;;
7383;SDS011;3733;47.994;8.820;2023-11-18T07:37:42;79.40;;;9.77;;
7383;SDS011;3733;47.994;8.820;2023-11-18T07:40:08;96.10;;;10.50;;
7383;SDS011;3733;47.994;8.820;2023-11-18T07:42:36;165.30;;;13.43;;
7383;SDS011;3733;47.994;8.820;2023-11-18T07:45:03;85.20;;;10.97;;
7383;SDS011;3733;47.994;8.820;2023-11-18T07:47:32;77.67;;;11.00;;
7383;SDS011;3733;47.994;8.820;2023-11-18T07:49:59;142.40;;;12.93;;
7383;SDS011;3733;47.994;8.820;2023-11-18T07:52:26;66.70;;;14.37;;
7383;SDS011;3733;47.994;8.820;2023-11-18T07:54:53;43.63;;;9.57;;
7383;SDS011;3733;47.994;8.820;2023-11-18T07:57:19;26.90;;;9.17;;
7383;SDS011;3733;47.994;8.820;2023-11-18T07:59:44;52.10;;;11.40;;
7383;SDS011;3733;47.994;8.820;2023-11-18T08:02:10;32.60;;;12.80;;
7383;SDS011;3733;47.994;8.820;2023-11-18T08:04:36;73.80;;;12.50;;
7383;SDS011;3733;47.994;8.820;2023-11-18T08:07:02;95.90;;;12.00;;
7383;SDS011;3733;47.994;8.820;2023-11-18T08:09:29;118.13;;;12.60;;
7383;SDS011;3733;47.994;8.820;2023-11-18T08:11:57;151.53;;;14.03;;
7383;SDS011;3733;47.994;8.820;2023-11-18T08:14:23;94.20;;;14.23;;
7383;SDS011;3733;47.994;8.820;2023-11-18T08:16:49;42.33;;;10.43;;
7383;SDS011;3733;47.994;8.820;2023-11-18T08:19:16;43.43;;;10.00;;
7383;SDS011;3733;47.994;8.820;2023-11-18T08:21:42;44.97;;;10.97;;
7383;SDS011;3733;47.994;8.820;2023-11-18T08:24:08;38.67;;;10.80;;
7383;SDS011;3733;47.994;8.820;2023-11-18T08:26:34;143.40;;;14.03;;
7383;SDS011;3733;47.994;8.820;2023-11-18T08:29:03;62.90;;;13.57;;
7383;SDS011;3733;47.994;8.820;2023-11-18T08:31:28;27.27;;;10.43;;
7383;SDS011;3733;47.994;8.820;2023-11-18T08:33:54;27.53;;;10.70;;
7383;SDS011;3733;47.994;8.820;2023-11-18T08:36:20;24.87;;;10.23;;
7383;SDS011;3733;47.994;8.820;2023-11-18T08:38:47;33.63;;;11.30;;
7383;SDS011;3733;47.994;8.820;2023-11-18T08:41:14;23.17;;;9.47;;
7383;SDS011;3733;47.994;8.820;2023-11-18T08:43:40;24.67;;;10.70;;
7383;SDS011;3733;47.994;8.820;2023-11-18T08:46:06;26.10;;;9.80;;
7383;SDS011;3733;47.994;8.820;2023-11-18T08:48:32;22.67;;;10.10;;
7383;SDS011;3733;47.994;8.820;2023-11-18T08:50:59;25.77;;;11.00;;
7383;SDS011;3733;47.994;8.820;2023-11-18T08:53:26;53.73;;;14.80;;
7383;SDS011;3733;47.994;8.820;2023-11-18T08:55:52;29.80;;;13.67;;
7383;SDS011;3733;47.994;8.820;2023-11-18T08:58:21;36.07;;;12.93;;
7383;SDS011;3733;47.994;8.820;2023-11-18T09:00:51;34.20;;;12.17;;
7383;SDS011;3733;47.994;8.820;2023-11-18T09:03:22;28.80;;;11.10;;
7383;SDS011;3733;47.994;8.820;2023-11-18T09:06:02;31.43;;;11.07;;
7383;SDS011;3733;47.994;8.820;2023-11-18T09:11:03;23.20;;;9.97;;
7383;SDS011;3733;47.994;8.820;2023-11-18T09:13:31;27.83;;;10.63;;
7383;SDS011;3733;47.994;8.820;2023-11-18T09:16:00;19.67;;;9.53;;
7383;SDS011;3733;47.994;8.820;2023-11-18T09:18:33;32.70;;;12.73;;
7383;SDS011;3733;47.994;8.820;2023-11-18T09:21:00;25.57;;;10.40;;
7383;SDS011;3733;47.994;8.820;2023-11-18T09:23:26;22.90;;;10.30;;
7383;SDS011;3733;47.994;8.820;2023-11-18T09:25:54;27.17;;;12.67;;
7383;SDS011;3733;47.994;8.820;2023-11-18T09:28:20;32.40;;;12.27;;
7383;SDS011;3733;47.994;8.820;2023-11-18T09:30:47;29.27;;;12.77;;
7383;SDS011;3733;47.994;8.820;2023-11-18T09:33:21;43.53;;;15.20;;
7383;SDS011;3733;47.994;8.820;2023-11-18T09:35:51;37.43;;;15.27;;
7383;SDS011;3733;47.994;8.820;2023-11-18T09:38:21;37.70;;;14.00;;
7383;SDS011;3733;47.994;8.820;2023-11-18T09:40:47;31.30;;;12.13;;
7383;SDS011;3733;47.994;8.820;2023-11-18T09:43:14;36.03;;;13.53;;
7383;SDS011;3733;47.994;8.820;2023-11-18T09:45:43;41.70;;;14.47;;
7383;SDS011;3733;47.994;8.820;2023-11-18T09:48:12;36.47;;;12.20;;
7383;SDS011;3733;47.994;8.820;2023-11-18T09:50:43;40.63;;;13.50;;
7383;SDS011;3733;47.994;8.820;2023-11-18T09:53:12;32.37;;;12.53;;
7383;SDS011;3733;47.994;8.820;2023-11-18T09:55:45;35.10;;;12.90;;
7383;SDS011;3733;47.994;8.820;2023-11-18T09:58:25;30.73;;;12.73;;
7383;SDS011;3733;47.994;8.820;2023-11-18T10:00:59;35.00;;;12.70;;
7383;SDS011;3733;47.994;8.820;2023-11-18T10:03:27;35.47;;;12.93;;
7383;SDS011;3733;47.994;8.820;2023-11-18T10:05:54;37.20;;;12.97;;
7383;SDS011;3733;47.994;8.820;2023-11-18T10:08:22;33.80;;;12.60;;
7383;SDS011;3733;47.994;8.820;2023-11-18T10:10:51;49.63;;;16.33;;
7383;SDS011;3733;47.994;8.820;2023-11-18T10:13:29;51.07;;;18.10;;
7383;SDS011;3733;47.994;8.820;2023-11-18T10:15:55;40.33;;;15.50;;
7383;SDS011;3733;47.994;8.820;2023-11-18T10:18:22;53.33;;;17.40;;
7383;SDS011;3733;47.994;8.820;2023-11-18T10:20:49;44.97;;;16.40;;
7383;SDS011;3733;47.994;8.820;2023-11-18T10:23:19;39.90;;;15.53;;
7383;SDS011;3733;47.994;8.820;2023-11-18T10:25:49;33.03;;;13.00;;
7383;SDS011;3733;47.994;8.820;2023-11-18T10:28:23;38.80;;;14.00;;
7383;SDS011;3733;47.994;8.820;2023-11-18T10:31:00;33.97;;;13.20;;
7383;SDS011;3733;47.994;8.820;2023-11-18T10:33:40;34.67;;;13.63;;
7383;SDS011;3733;47.994;8.820;2023-11-18T10:36:19;33.97;;;12.70;;
7383;SDS011;3733;47.994;8.820;2023-11-18T10:38:48;34.63;;;13.10;;
7383;SDS011;3733;47.994;8.820;2023-11-18T10:41:15;32.67;;;12.73;;
7383;SDS011;3733;47.994;8.820;2023-11-18T10:43:42;27.37;;;12.17;;
7383;SDS011;3733;47.994;8.820;2023-11-18T10:46:10;31.43;;;13.20;;
7383;SDS011;3733;47.994;8.820;2023-11-18T10:48:43;33.13;;;13.77;;
7383;SDS011;3733;47.994;8.820;2023-11-18T10:51:16;30.73;;;12.80;;
7383;SDS011;3733;47.994;8.820;2023-11-18T10:53:44;33.73;;;13.57;;
7383;SDS011;3733;47.994;8.820;2023-11-18T10:56:26;29.97;;;13.23;;
7383;SDS011;3733;47.994;8.820;2023-11-18T10:58:52;33.73;;;12.83;;
7383;SDS011;3733;47.994;8.820;2023-11-18T11:01:31;30.50;;;13.53;;
7383;SDS011;3733;47.994;8.820;2023-11-18T11:03:58;33.93;;;12.90;;
7383;SDS011;3733;47.994;8.820;2023-11-18T11:06:25;34.30;;;12.23;;
7383;SDS011;3733;47.994;8.820;2023-11-18T11:08:51;28.27;;;13.77;;
7383;SDS011;3733;47.994;8.820;2023-11-18T11:11:21;25.67;;;12.10;;
7383;SDS011;3733;47.994;8.820;2023-11-18T11:13:50;26.30;;;11.07;;
7383;SDS011;3733;47.994;8.820;2023-11-18T11:16:24;28.60;;;12.63;;
7383;SDS011;3733;47.994;8.820;2023-11-18T11:18:58;23.43;;;11.00;;
7383;SDS011;3733;47.994;8.820;2023-11-18T11:21:33;26.77;;;11.93;;
7383;SDS011;3733;47.994;8.820;2023-11-18T11:24:13;30.27;;;11.43;;
7383;SDS011;3733;47.994;8.820;2023-11-18T11:29:54;29.83;;;12.40;;
7383;SDS011;3733;47.994;8.820;2023-11-18T11:32:35;29.27;;;12.80;;
7383;SDS011;3733;47.994;8.820;2023-11-18T11:35:29;30.40;;;12.87;;
7383;SDS011;3733;47.994;8.820;2023-11-18T11:37:58;28.30;;;13.33;;
7383;SDS011;3733;47.994;8.820;2023-11-18T11:40:32;29.60;;;12.70;;
7383;SDS011;3733;47.994;8.820;2023-11-18T11:43:01;33.43;;;13.40;;
7383;SDS011;3733;47.994;8.820;2023-11-18T11:45:30;31.10;;;13.97;;
7383;SDS011;3733;47.994;8.820;2023-11-18T11:47:56;43.77;;;14.97;;
7383;SDS011;3733;47.994;8.820;2023-11-18T11:50:49;26.40;;;12.93;;
7383;SDS011;3733;47.994;8.820;2023-11-18T11:53:40;29.17;;;14.00;;
7383;SDS011;3733;47.994;8.820;2023-11-18T11:56:12;21.57;;;11.37;;
7383;SDS011;3733;47.994;8.820;2023-11-18T11:58:46;26.20;;;11.33;;
7383;SDS011;3733;47.994;8.820;2023-11-18T12:03:57;28.33;;;12.10;;
7383;SDS011;3733;47.994;8.820;2023-11-18T12:06:24;27.20;;;12.90;;
7383;SDS011;3733;47.994;8.820;2023-11-18T12:08:51;22.70;;;10.80;;
7383;SDS011;3733;47.994;8.820;2023-11-18T12:11:18;21.30;;;10.87;;
7383;SDS011;3733;47.994;8.820;2023-11-18T12:14:06;23.37;;;11.53;;
7383;SDS011;3733;47.994;8.820;2023-11-18T12:19:36;26.87;;;11.57;;
7383;SDS011;3733;47.994;8.820;2023-11-18T12:22:16;20.87;;;9.83;;
7383;SDS011;3733;47.994;8.820;2023-11-18T12:27:45;23.53;;;11.60;;
7383;SDS011;3733;47.994;8.820;2023-11-18T12:38:52;20.07;;;10.00;;
7383;SDS011;3733;47.994;8.820;2023-11-18T12:41:38;21.30;;;9.40;;
7383;SDS011;3733;47.994;8.820;2023-11-18T12:44:15;21.67;;;9.20;;
7383;SDS011;3733;47.994;8.820;2023-11-18T12:49:39;9.10;;;4.13;;
7383;SDS011;3733;47.994;8.820;2023-11-18T12:52:09;6.27;;;4.93;;
7383;SDS011;3733;47.994;8.820;2023-11-18T12:54:39;7.80;;;4.33;;
7383;SDS011;3733;47.994;8.820;2023-11-18T12:57:09;5.77;;;4.30;;
7383;SDS011;3733;47.994;8.820;2023-11-18T12:59:39;7.93;;;4.60;;
7383;SDS011;3733;47.994;8.820;2023-11-18T13:02:08;8.80;;;4.80;;
7383;SDS011;3733;47.994;8.820;2023-11-18T13:04:41;6.27;;;3.70;;
7383;SDS011;3733;47.994;8.820;2023-11-18T13:07:06;7.43;;;4.30;;
7383;SDS011;3733;47.994;8.820;2023-11-18T13:09:36;6.10;;;4.43;;
7383;SDS011;3733;47.994;8.820;2023-11-18T13:12:04;10.93;;;5.67;;
7383;SDS011;3733;47.994;8.820;2023-11-18T13:14:33;8.30;;;5.80;;
7383;SDS011;3733;47.994;8.820;2023-11-18T13:17:01;11.07;;;6.67;;
7383;SDS011;3733;47.994;8.820;2023-11-18T13:19:31;9.80;;;6.13;;
7383;SDS011;3733;47.994;8.820;2023-11-18T13:22:02;16.10;;;7.57;;
7383;SDS011;3733;47.994;8.820;2023-11-18T13:24:35;10.63;;;5.60;;
7383;SDS011;3733;47.994;8.820;2023-11-18T13:27:01;10.93;;;5.80;;
7383;SDS011;3733;47.994;8.820;2023-11-18T13:29:32;9.83;;;5.90;;
7383;SDS011;3733;47.994;8.820;2023-11-18T13:32:01;9.80;;;6.13;;
7383;SDS011;3733;47.994;8.820;2023-11-18T13:34:30;15.50;;;7.40;;
7383;SDS011;3733;47.994;8.820;2023-11-18T13:36:58;10.50;;;6.10;;
7383;SDS011;3733;47.994;8.820;2023-11-18T13:39:23;8.63;;;5.73;;
7383;SDS011;3733;47.994;8.820;2023-11-18T13:41:52;9.63;;;5.43;;
7383;SDS011;3733;47.994;8.820;2023-11-18T13:44:37;9.33;;;6.27;;
7383;SDS011;3733;47.994;8.820;2023-11-18T13:47:09;11.70;;;5.70;;
7383;SDS011;3733;47.994;8.820;2023-11-18T13:49:39;10.13;;;5.50;;
7383;SDS011;3733;47.994;8.820;2023-11-18T13:52:08;7.07;;;4.87;;
7383;SDS011;3733;47.994;8.820;2023-11-18T13:54:36;7.90;;;4.93;;
7383;SDS011;3733;47.994;8.820;2023-11-18T13:57:02;10.87;;;5.90;;
7383;SDS011;3733;47.994;8.820;2023-11-18T13:59:29;8.70;;;5.50;;
7383;SDS011;3733;47.994;8.820;2023-11-18T14:01:55;6.63;;;5.33;;
7383;SDS011;3733;47.994;8.820;2023-11-18T14:04:29;11.50;;;6.03;;
7383;SDS011;3733;47.994;8.820;2023-11-18T14:06:57;11.40;;;5.77;;
7383;SDS011;3733;47.994;8.820;2023-11-18T14:09:24;8.17;;;5.10;;
7383;SDS011;3733;47.994;8.820;2023-11-18T14:11:53;14.43;;;8.57;;
7383;SDS011;3733;47.994;8.820;2023-11-18T14:14:22;8.67;;;6.33;;
7383;SDS011;3733;47.994;8.820;2023-11-18T14:16:50;8.97;;;5.20;;
7383;SDS011;3733;47.994;8.820;2023-11-18T14:19:18;11.50;;;6.23;;
7383;SDS011;3733;47.994;8.820;2023-11-18T14:21:43;10.50;;;5.50;;
7383;SDS011;3733;47.994;8.820;2023-11-18T14:24:09;8.33;;;5.70;;
7383;SDS011;3733;47.994;8.820;2023-11-18T14:26:36;10.20;;;6.37;;
7383;SDS011;3733;47.994;8.820;2023-11-18T14:29:04;7.27;;;4.60;;
7383;SDS011;3733;47.994;8.820;2023-11-18T14:31:31;7.70;;;5.03;;
7383;SDS011;3733;47.994;8.820;2023-11-18T14:33:57;8.73;;;5.40;;
7383;SDS011;3733;47.994;8.820;2023-11-18T14:36:24;9.20;;;5.50;;
7383;SDS011;3733;47.994;8.820;2023-11-18T14:38:50;11.13;;;6.17;;
7383;SDS011;3733;47.994;8.820;2023-11-18T14:41:16;9.30;;;5.03;;
7383;SDS011;3733;47.994;8.820;2023-11-18T14:43:44;10.57;;;5.23;;
7383;SDS011;3733;47.994;8.820;2023-11-18T14:46:10;10.67;;;6.23;;
7383;SDS011;3733;47.994;8.820;2023-11-18T14:48:36;8.67;;;5.77;;
7383;SDS011;3733;47.994;8.820;2023-11-18T14:51:02;9.00;;;6.43;;
7383;SDS011;3733;47.994;8.820;2023-11-18T14:53:29;8.80;;;5.90;;
7383;SDS011;3733;47.994;8.820;2023-11-18T14:55:55;14.03;;;8.83;;
7383;SDS011;3733;47.994;8.820;2023-11-18T14:58:22;15.00;;;9.43;;
7383;SDS011;3733;47.994;8.820;2023-11-18T15:00:48;40.90;;;22.13;;
7383;SDS011;3733;47.994;8.820;2023-11-18T15:03:14;12.87;;;9.10;;
7383;SDS011;3733;47.994;8.820;2023-11-18T15:05:41;16.27;;;9.73;;
7383;SDS011;3733;47.994;8.820;2023-11-18T15:08:09;12.50;;;7.07;;
7383;SDS011;3733;47.994;8.820;2023-11-18T15:10:34;10.30;;;6.93;;
7383;SDS011;3733;47.994;8.820;2023-11-18T15:13:02;8.57;;;5.97;;
7383;SDS011;3733;47.994;8.820;2023-11-18T15:15:29;12.20;;;7.10;;
7383;SDS011;3733;47.994;8.820;2023-11-18T15:17:59;11.13;;;6.23;;
7383;SDS011;3733;47.994;8.820;2023-11-18T15:20:30;8.77;;;6.17;;
7383;SDS011;3733;47.994;8.820;2023-11-18T15:22:56;9.67;;;5.97;;
7383;SDS011;3733;47.994;8.820;2023-11-18T15:25:21;12.60;;;7.50;;
7383;SDS011;3733;47.994;8.820;2023-11-18T15:27:47;11.50;;;8.30;;
7383;SDS011;3733;47.994;8.820;2023-11-18T15:30:14;12.47;;;6.93;;